Time;durP1;ratioP1;P1;durP2;ratioP2;P2;SDS_P1;SDS_P2;PMS_P1;PMS_P2;Temp;Humidity;BMP_temperature;BMP_pressure;BME280_temperature;BME280_humidity;BME280_pressure;Samples;Min_cycle;Max_cycle;Signal;HPM_P1;HPM_P2
2023/08/28 00:01:59;;;;;;;3.10;1.50;;;;;;;18.70;100.00;98431.45;107746;1308;22259;-39
2023/08/28 00:04:24;;;;;;;1.80;1.60;;;;;;;18.66;100.00;98440.19;107756;1308;22255;-42
2023/08/28 00:06:51;;;;;;;1.80;1.50;;;;;;;18.60;100.00;98437.77;107772;1308;22411;-41
2023/08/28 00:09:17;;;;;;;4.60;1.70;;;;;;;18.59;100.00;98425.50;107771;1308;22467;-42
2023/08/28 00:11:42;;;;;;;1.90;1.40;;;;;;;18.60;100.00;98418.05;107734;1308;23157;-40
2023/08/28 00:14:07;;;;;;;3.00;1.50;;;;;;;18.56;100.00;98410.67;107762;1308;22429;-40
2023/08/28 00:16:33;;;;;;;2.30;1.80;;;;;;;18.54;100.00;98425.45;107745;1308;22240;-39
2023/08/28 00:18:58;;;;;;;3.50;1.60;;;;;;;18.52;100.00;98438.77;107734;1308;23027;-41
2023/08/28 00:21:23;;;;;;;2.50;1.40;;;;;;;18.46;100.00;98436.39;107766;1308;22272;-39
2023/08/28 00:23:49;;;;;;;4.10;1.70;;;;;;;18.40;100.00;98434.77;107754;1308;22416;-42
2023/08/28 00:26:14;;;;;;;2.90;1.40;;;;;;;18.37;100.00;98436.15;107767;1308;22522;-42
2023/08/28 00:28:39;;;;;;;1.90;1.40;;;;;;;18.35;100.00;98437.65;107740;1308;22258;-40
2023/08/28 00:31:04;;;;;;;3.40;1.60;;;;;;;18.33;100.00;98437.64;107730;1308;22226;-40
2023/08/28 00:33:30;;;;;;;1.80;1.50;;;;;;;18.31;100.00;98438.83;107748;1308;22468;-41
2023/08/28 00:35:55;;;;;;;2.20;1.40;;;;;;;18.25;100.00;98434.82;107760;1308;22170;-41
2023/08/28 00:38:20;;;;;;;1.50;1.40;;;;;;;18.22;100.00;98434.52;107769;1308;22522;-42
2023/08/28 00:40:46;;;;;;;5.30;2.00;;;;;;;18.20;100.00;98435.85;107759;1308;23010;-42
2023/08/28 00:43:11;;;;;;;2.00;1.60;;;;;;;18.19;100.00;98444.25;107750;1308;22253;-41
2023/08/28 00:45:40;;;;;;;1.90;1.80;;;;;;;18.17;100.00;98458.58;107748;1308;22426;-39
2023/08/28 00:48:05;;;;;;;1.70;1.60;;;;;;;18.15;100.00;98456.86;107740;1308;22259;-42
2023/08/28 00:50:31;;;;;;;3.60;2.00;;;;;;;18.17;100.00;98452.25;107745;1308;22238;-40
2023/08/28 00:52:56;;;;;;;3.30;1.70;;;;;;;18.19;100.00;98453.83;107729;1308;22414;-39
2023/08/28 00:55:22;;;;;;;3.40;1.70;;;;;;;18.20;100.00;98451.24;107729;1290;22268;-39
2023/08/28 00:57:47;;;;;;;2.70;2.00;;;;;;;18.20;100.00;98450.20;107761;1308;23268;-41
2023/08/28 01:00:13;;;;;;;1.80;1.30;;;;;;;18.18;100.00;98452.70;107727;1291;22292;-40
2023/08/28 01:02:39;;;;;;;2.50;1.90;;;;;;;18.19;100.00;98453.27;107736;1308;22857;-39
2023/08/28 01:05:05;;;;;;;2.80;2.10;;;;;;;18.22;100.00;98459.73;107720;1308;22506;-41
2023/08/28 01:07:38;;;;;;;2.40;1.70;;;;;;;18.25;100.00;98464.89;107732;1308;22577;-41
2023/08/28 01:10:15;;;;;;;8.20;2.00;;;;;;;18.27;100.00;98464.04;107709;1308;22412;-39
2023/08/28 01:12:55;;;;;;;2.60;2.10;;;;;;;18.29;100.00;98473.71;107756;1308;22264;-41
2023/08/28 01:15:22;;;;;;;2.10;1.80;;;;;;;18.29;100.00;98480.33;107745;1308;22458;-41
2023/08/28 01:17:51;;;;;;;5.40;2.00;;;;;;;18.27;100.00;98490.09;107742;1308;22252;-41
2023/08/28 01:20:17;;;;;;;2.20;2.00;;;;;;;18.24;100.00;98489.64;107739;1308;22242;-40
2023/08/28 01:22:54;;;;;;;2.70;1.80;;;;;;;18.28;100.00;98477.23;107733;1291;22374;-38
2023/08/28 01:25:20;;;;;;;1.90;1.80;;;;;;;18.31;100.00;98473.23;107748;1308;22230;-41
2023/08/28 01:27:46;;;;;;;5.90;2.00;;;;;;;18.32;100.00;98476.69;107716;1308;22404;-40
2023/08/28 01:30:14;;;;;;;3.20;2.70;;;;;;;18.29;100.00;98478.73;107756;1308;22927;-39
2023/08/28 01:32:41;;;;;;;3.50;2.60;;;;;;;18.27;100.00;98484.58;107730;1308;22488;-42
2023/08/28 01:35:12;;;;;;;2.10;2.00;;;;;;;18.28;100.00;98483.13;107768;1308;22268;-39
2023/08/28 01:38:07;;;;;;;3.00;2.40;;;;;;;18.28;100.00;98477.63;107727;1308;22375;-41
2023/08/28 01:40:44;;;;;;;2.40;2.10;;;;;;;18.28;100.00;98472.31;107761;1308;23234;-39
2023/08/28 01:43:12;;;;;;;2.20;2.10;;;;;;;18.28;100.00;98468.73;107751;1308;23257;-42
2023/08/28 01:45:38;;;;;;;3.40;2.30;;;;;;;18.27;100.00;98470.91;107724;1308;22361;-41
2023/08/28 01:48:05;;;;;;;2.90;2.70;;;;;;;18.31;100.00;98472.69;107733;1308;22433;-39
2023/08/28 01:50:30;;;;;;;2.60;2.40;;;;;;;18.33;100.00;98472.33;107771;1308;22413;-40
2023/08/28 01:52:56;;;;;;;3.20;2.30;;;;;;;18.34;100.00;98475.55;107717;1308;22252;-42
2023/08/28 01:55:36;;;;;;;3.10;2.30;;;;;;;18.36;100.00;98474.30;107746;1308;22242;-42
2023/08/28 01:58:02;;;;;;;4.80;2.90;;;;;;;18.36;100.00;98479.39;107747;1308;22900;-39
2023/08/28 02:00:27;;;;;;;3.80;2.30;;;;;;;18.35;100.00;98481.45;107752;1289;23162;-42
2023/08/28 02:02:52;;;;;;;4.60;2.80;;;;;;;18.36;100.00;98488.11;107725;1308;22226;-41
2023/08/28 02:05:18;;;;;;;2.90;2.50;;;;;;;18.32;100.00;98486.08;107745;1308;23180;-42
2023/08/28 02:07:43;;;;;;;3.30;2.50;;;;;;;18.28;100.00;98476.70;107748;1308;22380;-40
2023/08/28 02:10:08;;;;;;;2.80;2.60;;;;;;;18.26;100.00;98469.64;107743;1308;22288;-39
2023/08/28 02:12:33;;;;;;;4.90;3.00;;;;;;;18.21;100.00;98462.50;107753;1307;22304;-42
2023/08/28 02:14:59;;;;;;;5.10;2.70;;;;;;;18.23;100.00;98470.04;107759;1308;23610;-40
2023/08/28 02:17:24;;;;;;;3.20;2.90;;;;;;;18.25;100.00;98471.88;107731;1308;22233;-40
2023/08/28 02:19:49;;;;;;;2.80;2.60;;;;;;;18.26;100.00;98473.50;107743;1308;22470;-41
2023/08/28 02:22:14;;;;;;;3.00;2.70;;;;;;;18.22;100.00;98480.34;107758;1308;22252;-39
2023/08/28 02:24:40;;;;;;;3.40;2.60;;;;;;;18.20;100.00;98478.40;107754;1308;22232;-41
2023/08/28 02:27:05;;;;;;;2.90;2.70;;;;;;;18.18;100.00;98476.64;107733;1308;22418;-40
2023/08/28 02:29:30;;;;;;;5.50;2.90;;;;;;;18.15;100.00;98481.04;107736;1308;22471;-43
2023/08/28 02:31:55;;;;;;;4.20;2.80;;;;;;;18.11;100.00;98485.71;107770;1308;22255;-42
2023/08/28 02:34:21;;;;;;;3.10;2.80;;;;;;;18.06;100.00;98486.64;107760;1308;23091;-39
2023/08/28 02:36:46;;;;;;;4.30;2.60;;;;;;;18.03;100.00;98492.27;107761;1308;23117;-40
2023/08/28 02:39:11;;;;;;;2.70;2.40;;;;;;;18.03;100.00;98498.13;107740;1308;22241;-38
2023/08/28 02:44:03;;;;;;;3.10;2.40;;;;;;;18.02;100.00;98509.76;107432;1301;557742;-38
2023/08/28 02:46:28;;;;;;;2.80;2.50;;;;;;;17.96;100.00;98514.25;107546;1309;22477;-41
2023/08/28 02:48:53;;;;;;;6.50;2.70;;;;;;;17.92;100.00;98518.23;107579;1309;22496;-41
2023/08/28 02:51:18;;;;;;;2.90;2.40;;;;;;;17.90;100.00;98520.76;107555;1309;22262;-39
2023/08/28 02:53:44;;;;;;;3.30;2.60;;;;;;;17.88;100.00;98519.29;107569;1309;22240;-39
2023/08/28 02:56:21;;;;;;;2.90;2.70;;;;;;;17.87;100.00;98515.69;107454;1308;148279;-39
2023/08/28 02:58:46;;;;;;;3.50;2.80;;;;;;;17.85;100.00;98508.59;107706;1307;22542;-40
2023/08/28 03:01:12;;;;;;;3.20;3.00;;;;;;;17.82;100.00;98509.55;107817;1307;22338;-39
2023/08/28 03:03:37;;;;;;;4.10;2.90;;;;;;;17.86;100.00;98514.20;107854;1307;22244;-41
2023/08/28 03:06:02;;;;;;;5.30;3.10;;;;;;;17.89;100.00;98511.77;107841;1307;22354;-41
2023/08/28 03:08:30;;;;;;;4.40;2.90;;;;;;;17.88;100.00;98510.77;107855;1307;24838;-39
2023/08/28 03:10:56;;;;;;;3.20;2.70;;;;;;;17.87;100.00;98522.91;107857;1307;23658;-38
2023/08/28 03:13:21;;;;;;;3.90;3.10;;;;;;;17.86;100.00;98524.98;107837;1307;22221;-41
2023/08/28 03:15:46;;;;;;;6.50;3.10;;;;;;;17.86;100.00;98535.30;107890;1307;23072;-40
2023/08/28 03:18:12;;;;;;;4.20;3.20;;;;;;;17.85;100.00;98536.58;107859;1307;22462;-42
2023/08/28 03:20:37;;;;;;;4.10;3.30;;;;;;;17.84;100.00;98543.12;107862;1307;22985;-40
2023/08/28 03:23:03;;;;;;;4.20;3.70;;;;;;;17.84;100.00;98555.98;107820;1307;22604;-39
2023/08/28 03:25:28;;;;;;;6.50;4.00;;;;;;;17.86;100.00;98558.02;107398;1307;24891;-40
2023/08/28 03:27:53;;;;;;;5.10;3.60;;;;;;;17.80;100.00;98558.31;106744;1307;24290;-39
2023/08/28 03:30:19;;;;;;;4.30;3.40;;;;;;;17.78;100.00;98564.42;106742;1307;22553;-38
2023/08/28 03:32:44;;;;;;;5.00;3.90;;;;;;;17.77;100.00;98561.88;107007;1307;22436;-37
2023/08/28 03:35:09;;;;;;;9.60;4.60;;;;;;;17.75;100.00;98561.33;107826;1307;22268;-41
2023/08/28 03:37:35;;;;;;;10.00;4.40;;;;;;;17.75;100.00;98557.41;107865;1307;22233;-38
2023/08/28 03:40:00;;;;;;;5.20;4.70;;;;;;;17.78;100.00;98554.46;107831;1307;22991;-39
2023/08/28 03:42:25;;;;;;;5.20;4.80;;;;;;;17.79;100.00;98544.80;107852;1307;22245;-38
2023/08/28 03:44:50;;;;;;;8.10;4.90;;;;;;;17.80;100.00;98539.36;107851;1307;22552;-39
2023/08/28 03:47:16;;;;;;;5.10;4.60;;;;;;;17.81;100.00;98541.80;107836;1307;22708;-39
2023/08/28 03:49:41;;;;;;;8.00;4.70;;;;;;;17.83;100.00;98549.53;107863;1284;22797;-39
2023/08/28 03:52:06;;;;;;;7.50;4.90;;;;;;;17.87;100.00;98548.86;107857;1307;22305;-40
2023/08/28 03:54:31;;;;;;;6.90;5.20;;;;;;;17.90;100.00;98551.90;107773;1307;22262;-40
2023/08/28 03:56:57;;;;;;;9.60;5.70;;;;;;;17.92;100.00;98557.23;107762;1307;23207;-39
2023/08/28 03:59:23;;;;;;;9.40;5.70;;;;;;;17.94;100.00;98559.30;107747;1307;23877;-39
2023/08/28 04:01:48;;;;;;;7.10;6.30;;;;;;;17.96;100.00;98556.52;107757;1307;22484;-39
2023/08/28 04:04:14;;;;;;;6.80;6.10;;;;;;;17.97;100.00;98546.45;107736;1307;22474;-39
2023/08/28 04:06:39;;;;;;;7.30;6.20;;;;;;;17.95;100.00;98550.31;107778;1307;22993;-40
2023/08/28 04:09:05;;;;;;;7.00;6.10;;;;;;;17.96;100.00;98561.23;107764;1307;22253;-41
2023/08/28 04:11:30;;;;;;;8.90;6.70;;;;;;;17.97;100.00;98574.80;107777;1307;22819;-39
2023/08/28 04:13:56;;;;;;;11.30;7.00;;;;;;;17.97;100.00;98581.42;107758;1307;22511;-41
2023/08/28 04:16:21;;;;;;;14.00;7.00;;;;;;;17.97;100.00;98587.61;107738;1307;22914;-44
2023/08/28 04:18:46;;;;;;;9.70;6.40;;;;;;;17.99;100.00;98595.69;107772;1307;22208;-38
2023/08/28 04:21:12;;;;;;;10.00;7.30;;;;;;;18.00;100.00;98603.11;107758;1307;22251;-43
2023/08/28 04:23:37;;;;;;;9.60;7.00;;;;;;;17.98;100.00;98603.23;107757;1307;22261;-40
2023/08/28 04:26:03;;;;;;;9.60;7.30;;;;;;;17.97;100.00;98607.30;107762;1307;22349;-38
2023/08/28 04:28:29;;;;;;;11.00;7.40;;;;;;;17.93;100.00;98605.13;107777;1307;22382;-40
2023/08/28 04:30:55;;;;;;;9.40;6.50;;;;;;;17.93;100.00;98607.12;107777;1307;22470;-39
2023/08/28 04:33:20;;;;;;;10.40;7.60;;;;;;;17.94;100.00;98610.41;107770;1289;23086;-42
2023/08/28 04:35:46;;;;;;;11.80;7.90;;;;;;;17.96;100.00;98612.11;107776;1307;22453;-41
2023/08/28 04:38:12;;;;;;;11.20;7.80;;;;;;;17.96;100.00;98612.67;107773;1307;22724;-42
2023/08/28 04:40:37;;;;;;;8.30;7.30;;;;;;;17.98;100.00;98604.91;107761;1307;22317;-40
2023/08/28 04:43:02;;;;;;;13.10;7.90;;;;;;;18.02;100.00;98593.43;107761;1307;23326;-41
2023/08/28 04:45:28;;;;;;;11.10;8.30;;;;;;;18.07;100.00;98584.83;107782;1308;22264;-47
2023/08/28 04:47:53;;;;;;;10.50;8.10;;;;;;;18.09;100.00;98587.20;107779;1287;22338;-39
2023/08/28 04:50:18;;;;;;;10.90;8.00;;;;;;;18.06;100.00;98593.86;107782;1307;24517;-39
2023/08/28 04:52:43;;;;;;;12.80;8.70;;;;;;;18.11;100.00;98605.92;107769;1307;22490;-41
2023/08/28 04:55:09;;;;;;;11.00;8.10;;;;;;;18.14;100.00;98602.60;107779;1307;22241;-38
2023/08/28 04:57:34;;;;;;;13.30;8.20;;;;;;;18.15;100.00;98599.01;107780;1307;23327;-41
2023/08/28 04:59:59;;;;;;;10.90;8.80;;;;;;;18.15;100.00;98602.51;107786;1307;22280;-38
2023/08/28 05:02:25;;;;;;;11.10;8.80;;;;;;;18.17;100.00;98598.27;107805;1307;22484;-41
2023/08/28 05:04:50;;;;;;;14.60;8.00;;;;;;;18.21;100.00;98601.80;107791;1307;22292;-41
2023/08/28 05:07:15;;;;;;;15.90;8.20;;;;;;;18.20;100.00;98607.55;107741;1307;22423;-38
2023/08/28 05:09:40;;;;;;;9.70;7.50;;;;;;;18.21;100.00;98613.43;107780;1307;23107;-41
2023/08/28 05:12:06;;;;;;;10.90;8.30;;;;;;;18.22;100.00;98610.48;107795;1289;22266;-39
2023/08/28 05:14:31;;;;;;;9.50;7.90;;;;;;;18.26;100.00;98607.62;107761;1302;22469;-41
2023/08/28 05:16:57;;;;;;;12.40;8.20;;;;;;;18.25;100.00;98602.98;107768;1307;22865;-41
2023/08/28 05:19:22;;;;;;;9.70;8.20;;;;;;;18.29;100.00;98601.36;107778;1307;23014;-37
2023/08/28 05:21:47;;;;;;;11.70;8.30;;;;;;;18.30;100.00;98603.92;107769;1307;22384;-38
2023/08/28 05:24:12;;;;;;;16.70;7.70;;;;;;;18.32;100.00;98603.31;107777;1307;22283;-40
2023/08/28 05:26:38;;;;;;;11.00;8.60;;;;;;;18.33;100.00;98597.73;107782;1307;22485;-41
2023/08/28 05:29:03;;;;;;;14.20;8.00;;;;;;;18.36;100.00;98592.50;107738;1307;22269;-41
2023/08/28 05:31:29;;;;;;;9.20;7.60;;;;;;;18.36;100.00;98586.92;107782;1307;22378;-39
2023/08/28 05:33:54;;;;;;;9.50;8.20;;;;;;;18.35;100.00;98593.66;107765;1307;22253;-41
2023/08/28 05:36:19;;;;;;;9.10;7.60;;;;;;;18.34;100.00;98596.77;107792;1307;24241;-39
2023/08/28 05:38:45;;;;;;;11.90;8.00;;;;;;;18.34;100.00;98590.39;107797;1307;22402;-41
2023/08/28 05:41:10;;;;;;;9.90;7.50;;;;;;;18.36;100.00;98585.52;107769;1307;22337;-41
2023/08/28 05:43:36;;;;;;;10.60;7.10;;;;;;;18.40;100.00;98589.80;107756;1307;22439;-41
2023/08/28 05:46:01;;;;;;;13.50;7.40;;;;;;;18.43;100.00;98590.71;107765;1307;22429;-38
2023/08/28 05:48:27;;;;;;;12.00;7.90;;;;;;;18.47;100.00;98586.83;107797;1307;22268;-39
2023/08/28 05:50:52;;;;;;;9.00;6.80;;;;;;;18.48;100.00;98586.70;107799;1307;22218;-42
2023/08/28 05:53:17;;;;;;;9.50;6.80;;;;;;;18.48;100.00;98586.70;107780;1307;22242;-40
2023/08/28 05:55:45;;;;;;;10.80;6.90;;;;;;;18.48;100.00;98587.23;107804;1307;22284;-41
2023/08/28 05:58:10;;;;;;;;;;;;;;;18.49;100.00;98581.98;107819;1307;22646;-41
2023/08/28 06:00:35;;;;;;;11.60;7.40;;;;;;;18.51;100.00;98582.98;107777;1307;23411;-39
2023/08/28 06:03:00;;;;;;;8.40;6.90;;;;;;;18.56;100.00;98580.41;107772;1307;22472;-39
2023/08/28 06:05:26;;;;;;;9.80;6.70;;;;;;;18.58;100.00;98580.00;107788;1307;23051;-42
2023/08/28 06:07:51;;;;;;;11.50;7.90;;;;;;;18.56;100.00;98574.55;107801;1307;22521;-40
2023/08/28 06:10:19;;;;;;;8.90;6.30;;;;;;;18.58;100.00;98579.06;107809;1307;22265;-42
2023/08/28 06:12:48;;;;;;;11.70;5.70;;;;;;;18.60;100.00;98584.41;107790;1307;23110;-41
2023/08/28 06:15:18;;;;;;;15.90;7.10;;;;;;;18.58;100.00;98596.54;107801;1307;23003;-41
2023/08/28 06:17:44;;;;;;;9.80;7.30;;;;;;;18.58;100.00;98597.03;107775;1307;22907;-39
2023/08/28 06:20:10;;;;;;;9.40;6.50;;;;;;;18.59;100.00;98597.67;107797;1307;22257;-40
2023/08/28 06:22:37;;;;;;;7.50;6.60;;;;;;;18.60;100.00;98597.05;107792;1307;22223;-41
2023/08/28 06:25:02;;;;;;;11.70;6.10;;;;;;;18.63;100.00;98594.21;107792;1307;22259;-42
2023/08/28 06:27:28;;;;;;;8.20;6.70;;;;;;;18.64;100.00;98592.92;107800;1307;22426;-42
2023/08/28 06:29:53;;;;;;;9.90;6.40;;;;;;;18.68;100.00;98599.45;107792;1307;22411;-39
2023/08/28 06:32:18;;;;;;;8.70;6.20;;;;;;;18.74;99.43;98610.20;107807;1307;22239;-38
2023/08/28 06:34:43;;;;;;;6.60;5.90;;;;;;;18.71;98.69;98612.66;107792;1307;22477;-38
2023/08/28 06:37:09;;;;;;;9.80;6.50;;;;;;;18.64;98.93;98614.54;107811;1289;22958;-41
2023/08/28 06:39:34;;;;;;;10.10;5.90;;;;;;;18.65;98.35;98621.93;107790;1307;22485;-41
2023/08/28 06:41:59;;;;;;;11.20;6.90;;;;;;;18.57;97.53;98615.04;107807;1284;22494;-41
2023/08/28 06:44:24;;;;;;;10.70;6.70;;;;;;;18.57;97.69;98606.52;107812;1307;22447;-39
2023/08/28 06:46:50;;;;;;;10.40;6.40;;;;;;;18.61;98.01;98607.71;107790;1307;23431;-40
2023/08/28 06:49:16;;;;;;;9.40;6.00;;;;;;;18.65;97.84;98604.71;107814;1307;22409;-41
2023/08/28 06:51:41;;;;;;;9.40;5.80;;;;;;;18.68;97.54;98602.67;107805;1307;22959;-38
2023/08/28 06:54:06;;;;;;;6.90;6.20;;;;;;;18.70;97.43;98600.64;107807;1307;22534;-38
2023/08/28 06:56:32;;;;;;;12.60;5.90;;;;;;;18.71;97.42;98602.17;107750;1307;22291;-41
2023/08/28 06:58:57;;;;;;;8.40;5.90;;;;;;;18.73;97.23;98606.55;107806;1307;24222;-41
2023/08/28 07:01:22;;;;;;;9.30;5.70;;;;;;;18.76;96.93;98617.04;107814;1307;22249;-40
2023/08/28 07:03:48;;;;;;;10.40;6.10;;;;;;;18.78;97.16;98617.55;107816;1307;22243;-42
2023/08/28 07:06:13;;;;;;;8.60;6.20;;;;;;;18.82;97.22;98622.36;107768;1307;22334;-42
2023/08/28 07:08:39;;;;;;;8.30;6.40;;;;;;;18.92;97.13;98618.56;107803;1307;22276;-39
2023/08/28 07:11:04;;;;;;;8.50;6.20;;;;;;;19.03;97.30;98619.17;107781;1289;22246;-41
2023/08/28 07:13:30;;;;;;;10.90;6.20;;;;;;;19.15;96.61;98624.39;107775;1307;23156;-40
2023/08/28 07:15:55;;;;;;;11.90;6.00;;;;;;;19.24;95.96;98629.08;107785;1307;22988;-41
2023/08/28 07:18:21;;;;;;;7.70;6.10;;;;;;;19.29;95.45;98630.61;107805;1307;22257;-40
2023/08/28 07:20:46;;;;;;;7.10;5.60;;;;;;;19.33;94.94;98631.34;107772;1307;22331;-40
2023/08/28 07:23:11;;;;;;;9.90;6.30;;;;;;;19.32;94.67;98636.56;107776;1284;23209;-44
2023/08/28 07:25:38;;;;;;;10.00;5.90;;;;;;;19.37;95.08;98632.83;107749;1307;22427;-41
2023/08/28 07:28:05;;;;;;;8.80;6.30;;;;;;;19.43;94.95;98632.37;107779;1307;22365;-40
2023/08/28 07:30:31;;;;;;;6.40;5.80;;;;;;;19.52;94.15;98639.29;107796;1307;22248;-39
2023/08/28 07:32:56;;;;;;;10.80;5.40;;;;;;;19.61;94.23;98643.67;107810;1307;23116;-41
2023/08/28 07:35:21;;;;;;;7.50;5.50;;;;;;;19.77;93.99;98649.35;107821;1307;22219;-41
2023/08/28 07:37:47;;;;;;;6.70;5.40;;;;;;;19.84;92.12;98652.59;107777;1289;22973;-41
2023/08/28 07:40:12;;;;;;;7.90;5.10;;;;;;;19.87;91.05;98647.13;107802;1307;22435;-40
2023/08/28 07:42:37;;;;;;;6.10;5.30;;;;;;;19.93;91.89;98646.86;107748;1307;22466;-39
2023/08/28 07:45:04;;;;;;;6.10;4.60;;;;;;;20.03;92.07;98648.23;107791;1307;22389;-40
2023/08/28 07:47:29;;;;;;;7.50;4.80;;;;;;;20.09;91.71;98638.68;107782;1307;22219;-40
2023/08/28 07:49:54;;;;;;;8.60;4.90;;;;;;;20.08;90.27;98633.73;107783;1307;22239;-41
2023/08/28 07:52:20;;;;;;;6.00;4.70;;;;;;;19.98;89.77;98634.04;107793;1307;22223;-39
2023/08/28 07:54:45;;;;;;;8.40;4.90;;;;;;;19.92;89.88;98631.77;107780;1307;22260;-40
2023/08/28 07:57:11;;;;;;;6.20;4.30;;;;;;;19.90;89.47;98630.98;107801;1307;22210;-41
2023/08/28 07:59:36;;;;;;;10.20;5.50;;;;;;;19.94;89.65;98625.58;107804;1307;22259;-40
2023/08/28 08:02:04;;;;;;;6.20;4.20;;;;;;;20.00;89.34;98614.09;107804;1307;22915;-40
2023/08/28 08:04:29;;;;;;;4.70;4.20;;;;;;;20.08;88.33;98610.75;107788;1307;22210;-39
2023/08/28 08:06:55;;;;;;;4.40;4.00;;;;;;;20.16;87.79;98610.77;107786;1307;22400;-40
2023/08/28 08:09:20;;;;;;;5.60;4.10;;;;;;;20.31;86.99;98606.38;107777;1307;22265;-39
2023/08/28 08:11:45;;;;;;;5.30;3.70;;;;;;;20.49;86.67;98602.96;107812;1307;22243;-41
2023/08/28 08:14:11;;;;;;;4.70;4.00;;;;;;;20.63;86.66;98610.75;107786;1307;22242;-39
2023/08/28 08:16:36;;;;;;;4.10;3.70;;;;;;;20.72;85.97;98610.73;107804;1307;22264;-38
2023/08/28 08:19:02;;;;;;;10.50;3.80;;;;;;;20.72;84.23;98607.27;107793;1307;22530;-42
2023/08/28 08:21:28;;;;;;;5.50;4.00;;;;;;;20.67;83.12;98614.06;107803;1287;22446;-40
2023/08/28 08:23:54;;;;;;;4.00;3.60;;;;;;;20.62;83.07;98621.05;107777;1307;22996;-40
2023/08/28 08:26:19;;;;;;;6.60;4.30;;;;;;;20.56;83.65;98626.77;107778;1307;22974;-38
2023/08/28 08:28:45;;;;;;;7.80;4.10;;;;;;;20.52;83.81;98627.83;107779;1307;22557;-42
2023/08/28 08:31:10;;;;;;;6.70;3.80;;;;;;;20.46;83.26;98630.27;107826;1307;22401;-39
2023/08/28 08:33:35;;;;;;;5.70;4.10;;;;;;;20.37;82.88;98626.71;107790;1307;23090;-39
2023/08/28 08:36:01;;;;;;;4.90;4.00;;;;;;;20.29;82.92;98619.74;107787;1307;24891;-40
2023/08/28 08:38:26;;;;;;;6.30;4.10;;;;;;;20.24;83.65;98605.98;107757;1300;22478;-41
2023/08/28 08:40:53;;;;;;;6.40;4.10;;;;;;;20.23;83.83;98598.28;107726;1303;22262;-42
2023/08/28 08:43:19;;;;;;;4.20;3.80;;;;;;;20.28;84.09;98601.86;107844;1301;22576;-38
2023/08/28 08:45:46;;;;;;;7.60;3.60;;;;;;;20.30;84.10;98600.95;107877;1307;22328;-41
2023/08/28 08:48:17;;;;;;;6.00;4.00;;;;;;;20.30;83.89;98599.33;107846;1307;22253;-42
2023/08/28 08:50:46;;;;;;;4.70;3.80;;;;;;;20.31;83.62;98591.88;107837;1300;23256;-42
2023/08/28 08:53:55;;;;;;;4.50;3.90;;;;;;;20.32;83.60;98591.62;107756;1290;22383;-39
2023/08/28 08:56:23;;;;;;;6.30;3.80;;;;;;;20.38;83.99;98594.27;107785;1300;23179;-39
2023/08/28 08:58:49;;;;;;;4.50;3.70;;;;;;;20.44;83.73;98600.52;107842;1293;22314;-43
2023/08/28 09:01:15;;;;;;;7.20;3.50;;;;;;;20.46;82.81;98614.71;107726;1300;23108;-42
2023/08/28 09:03:42;;;;;;;7.70;3.90;;;;;;;20.47;81.73;98624.58;107891;1307;22559;-42
2023/08/28 09:06:08;;;;;;;;;;;;;;;20.54;82.98;98629.74;107757;1285;22460;-41
2023/08/28 09:08:42;;;;;;;6.30;3.40;;;;;;;20.60;83.23;98638.38;107872;1301;22260;-40
2023/08/28 09:11:08;;;;;;;9.50;4.00;;;;;;;20.62;82.40;98644.77;107829;1290;22440;-41
2023/08/28 09:13:34;;;;;;;3.50;3.20;;;;;;;20.63;81.80;98656.73;107891;1303;22468;-41
2023/08/28 09:16:00;;;;;;;4.10;3.50;;;;;;;20.64;81.05;98674.13;107784;1305;22278;-42
2023/08/28 09:18:25;;;;;;;6.60;3.40;;;;;;;20.63;80.75;98676.33;107881;1295;22966;-39
2023/08/28 09:21:13;;;;;;;4.80;3.20;;;;;;;20.65;80.55;98679.87;107897;1287;22329;-40
2023/08/28 09:23:43;;;;;;;6.90;4.20;;;;;;;20.71;81.00;98683.85;107934;1307;22267;-41
2023/08/28 09:26:12;;;;;;;4.70;3.30;;;;;;;20.74;81.12;98687.48;107854;1289;22245;-41
2023/08/28 09:28:38;;;;;;;6.60;3.20;;;;;;;20.80;80.41;98682.01;107792;1301;22457;-41
2023/08/28 09:32:07;;;;;;;4.00;3.60;;;;;;;20.92;79.50;98681.27;106556;1312;557342;-52
2023/08/28 09:34:39;;;;;;;4.50;3.40;;;;;;;21.02;79.07;98675.16;107295;1298;23766;-49
2023/08/28 09:37:09;;;;;;;4.80;3.70;;;;;;;21.09;77.72;98675.84;107317;1297;22514;-50
2023/08/28 09:39:37;;;;;;;3.80;3.50;;;;;;;21.15;76.49;98680.18;107154;1301;22996;-49
2023/08/28 09:42:05;;;;;;;5.30;3.90;;;;;;;21.25;76.47;98676.58;107255;1300;22293;-46
2023/08/28 09:44:34;;;;;;;4.10;3.10;;;;;;;21.38;76.64;98670.04;107232;1301;134264;-51
2023/08/28 09:47:00;;;;;;;6.40;3.60;;;;;;;21.59;78.05;98664.17;107566;1294;22483;-43
2023/08/28 09:49:26;;;;;;;5.30;3.30;;;;;;;21.85;76.11;98658.81;107572;1298;22470;-47
2023/08/28 09:51:51;;;;;;;8.20;3.30;;;;;;;22.22;75.39;98651.00;107522;1301;22327;-48
2023/08/28 09:54:17;;;;;;;5.00;3.40;;;;;;;22.70;74.11;98639.05;107524;1294;22244;-51
2023/08/28 09:56:44;;;;;;;10.60;3.20;;;;;;;22.99;72.35;98635.17;107457;1295;22592;-47
2023/08/28 09:59:10;;;;;;;10.90;3.30;;;;;;;23.29;69.45;98633.59;107609;1302;22402;-47
2023/08/28 10:01:36;;;;;;;4.80;3.60;;;;;;;23.51;67.23;98633.16;107596;1298;22486;-54
2023/08/28 10:04:07;;;;;;;6.70;3.80;;;;;;;23.60;67.88;98630.27;107579;1301;22518;-49
2023/08/28 10:06:35;;;;;;;7.00;3.50;;;;;;;23.69;67.97;98634.40;107641;1303;22422;-45
2023/08/28 10:09:00;;;;;;;5.60;3.10;;;;;;;23.79;67.17;98636.95;107675;1303;22673;-50
2023/08/28 10:11:33;;;;;;;5.50;2.90;;;;;;;23.94;67.07;98634.84;107651;1301;23370;-47
2023/08/28 10:14:00;;;;;;;8.90;3.30;;;;;;;24.08;66.75;98636.44;107678;1294;22439;-49
2023/08/28 10:16:29;;;;;;;5.30;2.60;;;;;;;24.06;65.86;98636.20;107644;1291;22614;-51
2023/08/28 10:19:06;;;;;;;5.30;2.80;;;;;;;23.98;64.48;98631.60;107689;1294;23291;-49
2023/08/28 10:21:33;;;;;;;7.20;3.10;;;;;;;23.96;65.61;98630.86;107675;1301;22500;-54
2023/08/28 10:23:59;;;;;;;5.20;2.90;;;;;;;23.97;66.10;98627.98;107668;1301;23113;-50
2023/08/28 10:26:26;;;;;;;4.30;2.80;;;;;;;23.91;65.72;98630.15;107681;1302;22252;-46
2023/08/28 10:28:52;;;;;;;6.10;2.90;;;;;;;23.76;65.70;98637.51;107561;1294;23279;-46
2023/08/28 10:31:19;;;;;;;5.30;2.70;;;;;;;23.55;63.13;98640.16;107724;1303;22953;-49
2023/08/28 10:33:46;;;;;;;;;;;;;;;23.55;63.90;98639.90;107743;1292;22457;-50
2023/08/28 10:36:12;;;;;;;;;;;;;;;23.59;62.46;98638.61;107708;1301;23209;-47
2023/08/28 10:38:37;;;;;;;6.60;3.00;;;;;;;23.66;62.53;98642.46;107447;1309;22333;-47
2023/08/28 10:41:04;;;;;;;5.50;3.30;;;;;;;23.62;62.21;98642.20;107723;1301;22332;-48
2023/08/28 10:43:30;;;;;;;4.70;3.20;;;;;;;23.68;62.64;98642.16;107700;1298;22510;-53
2023/08/28 10:46:00;;;;;;;4.80;2.80;;;;;;;23.77;63.72;98643.52;107615;1303;22314;-49
2023/08/28 10:48:25;;;;;;;6.30;3.30;;;;;;;24.09;63.64;98642.18;107608;1302;22456;-47
2023/08/28 10:50:57;;;;;;;3.90;2.80;;;;;;;24.51;63.22;98643.09;107620;1286;22244;-47
2023/08/28 10:53:23;;;;;;;2.90;2.60;;;;;;;24.83;60.98;98642.69;107592;1301;22339;-49
2023/08/28 10:55:55;;;;;;;5.20;3.00;;;;;;;25.60;59.11;98629.23;107604;1301;22438;-53
2023/08/28 10:58:21;;;;;;;3.40;2.60;;;;;;;26.30;57.82;98619.63;107657;1287;22503;-49
2023/08/28 11:00:46;;;;;;;5.80;2.50;;;;;;;26.68;53.64;98623.39;107627;1294;22524;-52
2023/08/28 11:03:15;;;;;;;3.30;2.60;;;;;;;27.23;53.69;98614.54;107627;1294;22468;-49
2023/08/28 11:05:42;;;;;;;7.00;2.00;;;;;;;27.62;49.63;98613.41;107538;1302;22402;-51
2023/08/28 11:08:13;;;;;;;2.40;2.20;;;;;;;28.04;47.49;98618.99;107617;1302;23391;-46
2023/08/28 11:10:44;;;;;;;3.30;2.10;;;;;;;28.40;46.62;98622.03;107601;1298;22473;-49
2023/08/28 11:13:18;;;;;;;2.80;2.00;;;;;;;28.71;44.38;98618.79;107624;1297;22492;-49
2023/08/28 11:15:44;;;;;;;3.00;1.80;;;;;;;28.94;44.31;98618.15;107691;1301;22485;-41
2023/08/28 11:18:24;;;;;;;3.70;2.30;;;;;;;29.04;45.18;98621.83;107580;1302;22338;-44
2023/08/28 11:20:54;;;;;;;4.50;2.10;;;;;;;28.73;45.81;98627.85;107580;1302;23227;-47